Port Ontario, New York
Current Conditions -  °F | °C
As of 9:54 PM on Thursday 27 Nov 2014 (Local Time) from KFZY Reporting Station
Broken Clouds Broken Clouds  
Wind Chill: 20°   Ceiling: 3300
Heat Index: 27°   Visibility: 10mi
Dew Point: 19°   Wind: 6mph
Humidity: 72%   Direction: 300°WNW
Pressure: 30.06"   Gusts: NA
Location:  43.5166°N, 76.1253°W
Report Text: KFZY 280254Z AUTO 30005KT 10SM BKN033 M03/M07 A3006 RMK AO2 SLP186 60000 T10281072 53004
Loading
Personal Weather Stations






























Interactive Weather Map New forecast layout! Learn more

10-Day Weather Forecast

Advertisements
Track Severe Weather on mobile